CYHZ/YHZ METAR and TAF weather

Enter ICAO airport designator
Station Type Date Time Source
CYHZ METAR 2019/08/24 20:00 UTC NOAA

CYHZ 242000Z 01018KT 15SM BKN027 18/12 A3013 RMK SC7 SLP205 DENSITY ALT 800FT


Station Type Date Time Source
CYHZ Decoded METAR 2019/08/24 20:00 UTC NOAA

Station name not available
Aug 24, 2019 - 04:00 PM EDT / 2019.08.24 2000 UTC
Wind: from the N (010 degrees) at 21 MPH (18 KT):0
Visibility: 15 mile(s):0
Sky conditions: mostly cloudy
Temperature: 64 F (18 C)
Dew Point: 53 F (12 C)
Relative Humidity: 67%
Pressure (altimeter): 30.13 in. Hg (1020 hPa)
ob: CYHZ 242000Z 01018KT 15SM BKN027 18/12 A3013 RMK SC7 SLP205 DENSITY ALT 800FT
cycle: 20

Station Type Date Time Source
CYHZ TAF 2019/08/24 21:42 UTC NOAA

TAF TAF CYHZ 242038Z 2421/2518 01015G25KT P6SM SCT020 BKN030
TEMPO 2421/2424 BKN020
FM250000 03012G22KT P6SM FEW030
BECMG 2503/2505 03007KT
BECMG 2512/2514 06007KT
FM251700 11008KT P6SM SCT050
RMK NXT FCST BY 250000Z

Example: see airport list